Racine, WI (53403)

2:41 PM CDT on August 28, 2015 (GMT -0500)
KWIRACIN22 | | Change Station
CLOSE
Current Station
Personal Weather Station
Location: Racine, WI
Elevation: 643 ft
Nearby Weather Stations

Elev 643 ft 42.72 °N, 87.79 °W | Updated 2 minutes ago

Overcast
Overcast
68.7 °F
Feels Like 68.7 °F
N
3.2
Wind Variable Wind from West

Today
High -- | Low -- °F
--% Chance of Precip.
Yesterday
High -- | Low -- °F
Precip. -- in
6:11 AM 7:32 PM
Waxing Gibbous, 99% visible
Pressure 30.14 in
Visibility 10.0 miles
Clouds Mostly Cloudy 10000 ft
Mostly Cloudy 12000 ft
Dew Point 61 °F
Humidity 77%
Rainfall 0.00 in
Snow Depth Not available.
UV 5 out of 12
Pollen 5.60 out of 12
Air Quality Not available.
Flu Activity Not available.
METAR KRAC 281853Z AUTO 17006KT 10SM BKN100 BKN120 21/14 A3014 RMK AO2 SLP204 T02060144
Pressure 30.14 in
Visibility 10.0 miles
Clouds Mostly Cloudy 10000 ft
Mostly Cloudy 12000 ft
Dew Point 61 °F
Humidity 77%
Rainfall 0.00 in
Snow Depth Not available.
UV 5 out of 12
Pollen 5.60 out of 12
Air Quality Not available.
Flu Activity Not available.
METAR KRAC 281853Z AUTO 17006KT 10SM BKN100 BKN120 21/14 A3014 RMK AO2 SLP204 T02060144

10-Day Weather Forecast

×

Almanac

Astronomy

Aug. 28, 2015 Rise Set
Actual Time
Civil Twilight
Nautical Twilight
Astronomical Twilight
Moon
Length of Visible Light
Length of Day
Tomorrow will be .
, % of the Moon is Illuminated

Today's Extremes

State Highs State Lows

Community

WunderPhotos

Upload Photos

1,850,466 photos uploaded!

WunderBlogs® & News

Nearby

Air Quality

  Air Quality AQ Index Pollutant
Not available.

Snow Depth

Station Depth Elevation

Earthquake Activity

City Distance Mag. Time & Date
Minimum magnitude displayed is 2.5.

Coastal Water Temperatures

Place Temperature

Stations

Nearby Weather Stations

Station Location Temp. Windchill Dew Point Humidity Wind Precip. Elev Updated Type